sensor_id;sensor_type;location;lat;lon;timestamp;P1;durP1;ratioP1;P2;durP2;ratioP2
691;SDS011;328;50.086;8.576;2022-10-22T00:00:13;5.90;;;2.60;;
691;SDS011;328;50.086;8.576;2022-10-22T00:02:43;5.50;;;2.10;;
691;SDS011;328;50.086;8.576;2022-10-22T00:05:11;4.53;;;2.57;;
691;SDS011;328;50.086;8.576;2022-10-22T00:07:40;4.00;;;2.30;;
691;SDS011;328;50.086;8.576;2022-10-22T00:10:08;3.20;;;1.97;;
691;SDS011;328;50.086;8.576;2022-10-22T00:12:37;4.30;;;2.20;;
691;SDS011;328;50.086;8.576;2022-10-22T00:15:05;3.47;;;2.30;;
691;SDS011;328;50.086;8.576;2022-10-22T00:17:33;8.80;;;2.47;;
691;SDS011;328;50.086;8.576;2022-10-22T00:20:01;4.60;;;2.27;;
691;SDS011;328;50.086;8.576;2022-10-22T00:22:28;9.70;;;2.80;;
691;SDS011;328;50.086;8.576;2022-10-22T00:24:57;2.97;;;2.40;;
691;SDS011;328;50.086;8.576;2022-10-22T00:27:25;4.80;;;2.30;;
691;SDS011;328;50.086;8.576;2022-10-22T00:29:52;4.30;;;2.23;;
691;SDS011;328;50.086;8.576;2022-10-22T00:32:20;5.47;;;2.47;;
691;SDS011;328;50.086;8.576;2022-10-22T00:34:47;2.70;;;1.90;;
691;SDS011;328;50.086;8.576;2022-10-22T00:37:15;7.33;;;2.77;;
691;SDS011;328;50.086;8.576;2022-10-22T00:39:42;7.33;;;2.60;;
691;SDS011;328;50.086;8.576;2022-10-22T00:42:11;3.70;;;2.90;;
691;SDS011;328;50.086;8.576;2022-10-22T00:44:59;3.67;;;2.50;;
691;SDS011;328;50.086;8.576;2022-10-22T00:47:29;4.47;;;2.90;;
691;SDS011;328;50.086;8.576;2022-10-22T00:49:58;4.03;;;2.70;;
691;SDS011;328;50.086;8.576;2022-10-22T00:52:26;4.20;;;2.83;;
691;SDS011;328;50.086;8.576;2022-10-22T00:54:54;3.60;;;2.63;;
691;SDS011;328;50.086;8.576;2022-10-22T00:57:24;5.77;;;2.80;;
691;SDS011;328;50.086;8.576;2022-10-22T00:59:52;3.90;;;2.70;;
691;SDS011;328;50.086;8.576;2022-10-22T01:02:20;4.57;;;2.57;;
691;SDS011;328;50.086;8.576;2022-10-22T01:04:48;4.70;;;2.30;;
691;SDS011;328;50.086;8.576;2022-10-22T01:07:16;3.77;;;2.70;;
691;SDS011;328;50.086;8.576;2022-10-22T01:09:46;4.23;;;2.30;;
691;SDS011;328;50.086;8.576;2022-10-22T01:12:21;2.57;;;2.30;;
691;SDS011;328;50.086;8.576;2022-10-22T01:14:59;4.70;;;2.57;;
691;SDS011;328;50.086;8.576;2022-10-22T01:17:31;4.43;;;2.30;;
691;SDS011;328;50.086;8.576;2022-10-22T01:20:05;7.43;;;2.90;;
691;SDS011;328;50.086;8.576;2022-10-22T01:22:41;4.03;;;2.50;;
691;SDS011;328;50.086;8.576;2022-10-22T01:25:11;4.17;;;3.10;;
691;SDS011;328;50.086;8.576;2022-10-22T01:27:47;4.07;;;2.77;;
691;SDS011;328;50.086;8.576;2022-10-22T01:30:21;4.77;;;3.10;;
691;SDS011;328;50.086;8.576;2022-10-22T01:32:50;4.83;;;2.57;;
691;SDS011;328;50.086;8.576;2022-10-22T01:35:19;3.13;;;2.57;;
691;SDS011;328;50.086;8.576;2022-10-22T01:37:49;5.90;;;2.60;;
691;SDS011;328;50.086;8.576;2022-10-22T01:40:19;3.77;;;2.83;;
691;SDS011;328;50.086;8.576;2022-10-22T01:42:55;4.37;;;2.80;;
691;SDS011;328;50.086;8.576;2022-10-22T01:45:25;6.90;;;2.97;;
691;SDS011;328;50.086;8.576;2022-10-22T01:47:55;4.00;;;2.77;;
691;SDS011;328;50.086;8.576;2022-10-22T01:50:30;4.27;;;2.60;;
691;SDS011;328;50.086;8.576;2022-10-22T01:56:03;4.87;;;2.87;;
691;SDS011;328;50.086;8.576;2022-10-22T01:58:40;4.63;;;3.40;;
691;SDS011;328;50.086;8.576;2022-10-22T02:01:14;4.83;;;2.53;;
691;SDS011;328;50.086;8.576;2022-10-22T02:03:45;3.90;;;3.07;;
691;SDS011;328;50.086;8.576;2022-10-22T02:06:16;5.07;;;2.83;;
691;SDS011;328;50.086;8.576;2022-10-22T02:08:45;3.73;;;2.40;;
691;SDS011;328;50.086;8.576;2022-10-22T02:11:13;4.43;;;2.13;;
691;SDS011;328;50.086;8.576;2022-10-22T02:13:42;2.97;;;2.50;;
691;SDS011;328;50.086;8.576;2022-10-22T02:16:12;6.10;;;3.30;;
691;SDS011;328;50.086;8.576;2022-10-22T02:18:45;4.37;;;2.37;;
691;SDS011;328;50.086;8.576;2022-10-22T02:21:14;7.10;;;2.17;;
691;SDS011;328;50.086;8.576;2022-10-22T02:23:42;2.33;;;1.80;;
691;SDS011;328;50.086;8.576;2022-10-22T02:26:10;3.30;;;1.80;;
691;SDS011;328;50.086;8.576;2022-10-22T02:28:44;3.73;;;2.17;;
691;SDS011;328;50.086;8.576;2022-10-22T02:31:18;4.80;;;1.87;;
691;SDS011;328;50.086;8.576;2022-10-22T02:33:48;5.30;;;2.17;;
691;SDS011;328;50.086;8.576;2022-10-22T02:36:18;3.40;;;2.53;;
691;SDS011;328;50.086;8.576;2022-10-22T02:38:46;2.13;;;1.67;;
691;SDS011;328;50.086;8.576;2022-10-22T02:41:14;3.03;;;1.90;;
691;SDS011;328;50.086;8.576;2022-10-22T02:43:43;2.30;;;1.43;;
691;SDS011;328;50.086;8.576;2022-10-22T02:46:11;3.43;;;1.67;;
691;SDS011;328;50.086;8.576;2022-10-22T02:48:39;2.43;;;1.60;;
691;SDS011;328;50.086;8.576;2022-10-22T02:51:07;2.20;;;1.80;;
691;SDS011;328;50.086;8.576;2022-10-22T02:53:34;4.00;;;1.80;;
691;SDS011;328;50.086;8.576;2022-10-22T02:56:03;11.47;;;2.33;;
691;SDS011;328;50.086;8.576;2022-10-22T02:58:31;2.70;;;1.70;;
691;SDS011;328;50.086;8.576;2022-10-22T03:00:58;1.70;;;1.40;;
691;SDS011;328;50.086;8.576;2022-10-22T03:03:26;3.53;;;1.70;;
691;SDS011;328;50.086;8.576;2022-10-22T03:05:55;5.83;;;2.70;;
691;SDS011;328;50.086;8.576;2022-10-22T03:08:22;2.67;;;1.90;;
691;SDS011;328;50.086;8.576;2022-10-22T03:10:50;1.77;;;1.27;;
691;SDS011;328;50.086;8.576;2022-10-22T03:13:17;3.70;;;1.50;;
691;SDS011;328;50.086;8.576;2022-10-22T03:15:46;1.83;;;1.03;;
691;SDS011;328;50.086;8.576;2022-10-22T03:18:14;3.10;;;1.30;;
691;SDS011;328;50.086;8.576;2022-10-22T03:20:42;3.73;;;1.40;;
691;SDS011;328;50.086;8.576;2022-10-22T03:23:12;5.07;;;2.00;;
691;SDS011;328;50.086;8.576;2022-10-22T03:25:40;2.17;;;1.53;;
691;SDS011;328;50.086;8.576;2022-10-22T03:28:09;3.17;;;1.30;;
691;SDS011;328;50.086;8.576;2022-10-22T03:30:40;5.43;;;1.57;;
691;SDS011;328;50.086;8.576;2022-10-22T03:33:07;1.70;;;1.33;;
691;SDS011;328;50.086;8.576;2022-10-22T03:35:36;4.13;;;2.70;;
691;SDS011;328;50.086;8.576;2022-10-22T03:38:08;2.57;;;1.57;;
691;SDS011;328;50.086;8.576;2022-10-22T03:40:36;4.20;;;1.20;;
691;SDS011;328;50.086;8.576;2022-10-22T03:43:04;2.20;;;1.20;;
691;SDS011;328;50.086;8.576;2022-10-22T03:45:32;4.33;;;1.33;;
691;SDS011;328;50.086;8.576;2022-10-22T03:47:59;1.60;;;1.10;;
691;SDS011;328;50.086;8.576;2022-10-22T03:50:27;1.53;;;1.10;;
691;SDS011;328;50.086;8.576;2022-10-22T03:52:54;2.03;;;1.67;;
691;SDS011;328;50.086;8.576;2022-10-22T03:55:23;1.93;;;1.17;;
691;SDS011;328;50.086;8.576;2022-10-22T03:57:52;1.47;;;1.03;;
691;SDS011;328;50.086;8.576;2022-10-22T04:00:19;2.23;;;1.07;;
691;SDS011;328;50.086;8.576;2022-10-22T04:02:47;1.10;;;1.00;;
691;SDS011;328;50.086;8.576;2022-10-22T04:05:14;7.43;;;1.30;;
691;SDS011;328;50.086;8.576;2022-10-22T04:07:42;2.40;;;1.00;;
691;SDS011;328;50.086;8.576;2022-10-22T04:10:09;4.90;;;1.07;;
691;SDS011;328;50.086;8.576;2022-10-22T04:12:37;8.00;;;1.60;;
691;SDS011;328;50.086;8.576;2022-10-22T04:15:06;3.13;;;1.20;;
691;SDS011;328;50.086;8.576;2022-10-22T04:17:35;1.00;;;0.90;;
691;SDS011;328;50.086;8.576;2022-10-22T04:20:04;2.50;;;1.20;;
691;SDS011;328;50.086;8.576;2022-10-22T04:22:32;1.70;;;1.00;;
691;SDS011;328;50.086;8.576;2022-10-22T04:25:00;1.93;;;1.20;;
691;SDS011;328;50.086;8.576;2022-10-22T04:27:28;2.50;;;1.20;;
691;SDS011;328;50.086;8.576;2022-10-22T04:29:56;2.43;;;1.03;;
691;SDS011;328;50.086;8.576;2022-10-22T04:32:25;2.00;;;1.10;;
691;SDS011;328;50.086;8.576;2022-10-22T04:34:52;2.93;;;1.90;;
691;SDS011;328;50.086;8.576;2022-10-22T04:37:20;1.90;;;1.27;;
691;SDS011;328;50.086;8.576;2022-10-22T04:39:47;1.77;;;1.03;;
691;SDS011;328;50.086;8.576;2022-10-22T04:42:15;2.40;;;1.03;;
691;SDS011;328;50.086;8.576;2022-10-22T04:44:42;1.90;;;1.17;;
691;SDS011;328;50.086;8.576;2022-10-22T04:47:10;2.20;;;1.20;;
691;SDS011;328;50.086;8.576;2022-10-22T04:49:39;2.27;;;1.30;;
691;SDS011;328;50.086;8.576;2022-10-22T04:52:06;1.80;;;1.00;;
691;SDS011;328;50.086;8.576;2022-10-22T04:54:34;9.30;;;1.10;;
691;SDS011;328;50.086;8.576;2022-10-22T04:57:01;3.00;;;1.57;;
691;SDS011;328;50.086;8.576;2022-10-22T04:59:29;1.57;;;1.07;;
691;SDS011;328;50.086;8.576;2022-10-22T05:01:56;3.70;;;1.00;;
691;SDS011;328;50.086;8.576;2022-10-22T05:04:24;2.03;;;1.20;;
691;SDS011;328;50.086;8.576;2022-10-22T05:06:53;2.40;;;1.07;;
691;SDS011;328;50.086;8.576;2022-10-22T05:09:20;1.97;;;1.03;;
691;SDS011;328;50.086;8.576;2022-10-22T05:11:48;2.10;;;1.10;;
691;SDS011;328;50.086;8.576;2022-10-22T05:14:18;1.43;;;1.13;;
691;SDS011;328;50.086;8.576;2022-10-22T05:16:46;5.70;;;1.10;;
691;SDS011;328;50.086;8.576;2022-10-22T05:19:15;2.83;;;1.03;;
691;SDS011;328;50.086;8.576;2022-10-22T05:21:44;3.77;;;1.40;;
691;SDS011;328;50.086;8.576;2022-10-22T05:24:13;3.67;;;1.77;;
691;SDS011;328;50.086;8.576;2022-10-22T05:26:40;2.93;;;1.83;;
691;SDS011;328;50.086;8.576;2022-10-22T05:29:08;2.30;;;1.30;;
691;SDS011;328;50.086;8.576;2022-10-22T05:31:35;2.50;;;1.10;;
691;SDS011;328;50.086;8.576;2022-10-22T05:34:03;1.33;;;1.10;;
691;SDS011;328;50.086;8.576;2022-10-22T05:36:31;2.50;;;1.20;;
691;SDS011;328;50.086;8.576;2022-10-22T05:38:58;1.73;;;1.30;;
691;SDS011;328;50.086;8.576;2022-10-22T05:41:28;1.47;;;1.37;;
691;SDS011;328;50.086;8.576;2022-10-22T05:43:57;6.40;;;1.60;;
691;SDS011;328;50.086;8.576;2022-10-22T05:46:26;3.30;;;1.00;;
691;SDS011;328;50.086;8.576;2022-10-22T05:48:55;1.97;;;1.20;;
691;SDS011;328;50.086;8.576;2022-10-22T05:51:24;4.90;;;1.40;;
691;SDS011;328;50.086;8.576;2022-10-22T05:53:53;1.20;;;0.83;;
691;SDS011;328;50.086;8.576;2022-10-22T05:56:21;2.57;;;1.10;;
691;SDS011;328;50.086;8.576;2022-10-22T05:58:50;5.77;;;1.47;;
691;SDS011;328;50.086;8.576;2022-10-22T06:01:19;1.53;;;1.27;;
691;SDS011;328;50.086;8.576;2022-10-22T06:03:47;1.97;;;1.20;;
691;SDS011;328;50.086;8.576;2022-10-22T06:06:17;1.50;;;1.30;;
691;SDS011;328;50.086;8.576;2022-10-22T06:08:46;3.20;;;1.63;;
691;SDS011;328;50.086;8.576;2022-10-22T06:11:15;2.40;;;1.30;;
691;SDS011;328;50.086;8.576;2022-10-22T06:13:43;4.67;;;1.10;;
691;SDS011;328;50.086;8.576;2022-10-22T06:16:12;3.77;;;1.13;;
691;SDS011;328;50.086;8.576;2022-10-22T06:18:40;1.57;;;1.00;;
691;SDS011;328;50.086;8.576;2022-10-22T06:21:08;4.33;;;1.40;;
691;SDS011;328;50.086;8.576;2022-10-22T06:23:37;1.80;;;1.40;;
691;SDS011;328;50.086;8.576;2022-10-22T06:26:05;2.10;;;1.40;;
691;SDS011;328;50.086;8.576;2022-10-22T06:28:33;2.13;;;1.23;;
691;SDS011;328;50.086;8.576;2022-10-22T06:31:02;2.20;;;1.00;;
691;SDS011;328;50.086;8.576;2022-10-22T06:33:32;1.27;;;0.90;;
691;SDS011;328;50.086;8.576;2022-10-22T06:36:05;1.10;;;0.80;;
691;SDS011;328;50.086;8.576;2022-10-22T06:38:33;2.60;;;1.30;;
691;SDS011;328;50.086;8.576;2022-10-22T06:41:01;5.13;;;1.17;;
691;SDS011;328;50.086;8.576;2022-10-22T06:43:30;2.50;;;0.87;;
691;SDS011;328;50.086;8.576;2022-10-22T06:45:58;9.23;;;1.00;;
691;SDS011;328;50.086;8.576;2022-10-22T06:48:26;1.93;;;1.20;;
691;SDS011;328;50.086;8.576;2022-10-22T06:50:55;4.43;;;1.10;;
691;SDS011;328;50.086;8.576;2022-10-22T06:53:23;1.73;;;1.03;;
691;SDS011;328;50.086;8.576;2022-10-22T06:55:50;1.20;;;0.90;;
691;SDS011;328;50.086;8.576;2022-10-22T06:58:18;2.40;;;1.27;;
691;SDS011;328;50.086;8.576;2022-10-22T07:00:45;6.57;;;1.17;;
691;SDS011;328;50.086;8.576;2022-10-22T07:03:13;1.40;;;1.10;;
691;SDS011;328;50.086;8.576;2022-10-22T07:05:41;2.00;;;1.40;;
691;SDS011;328;50.086;8.576;2022-10-22T07:08:10;2.27;;;0.90;;
691;SDS011;328;50.086;8.576;2022-10-22T07:10:38;3.33;;;1.50;;
691;SDS011;328;50.086;8.576;2022-10-22T07:13:05;1.97;;;1.20;;
691;SDS011;328;50.086;8.576;2022-10-22T07:15:33;2.70;;;1.27;;
691;SDS011;328;50.086;8.576;2022-10-22T07:18:00;1.57;;;1.23;;
691;SDS011;328;50.086;8.576;2022-10-22T07:20:29;1.53;;;1.07;;
691;SDS011;328;50.086;8.576;2022-10-22T07:22:57;3.47;;;1.43;;
691;SDS011;328;50.086;8.576;2022-10-22T07:25:26;2.03;;;1.20;;
691;SDS011;328;50.086;8.576;2022-10-22T07:27:53;2.20;;;1.20;;
691;SDS011;328;50.086;8.576;2022-10-22T07:30:21;2.90;;;1.30;;
691;SDS011;328;50.086;8.576;2022-10-22T07:32:48;1.20;;;1.10;;
691;SDS011;328;50.086;8.576;2022-10-22T07:35:16;5.47;;;1.27;;
691;SDS011;328;50.086;8.576;2022-10-22T07:37:43;1.50;;;0.97;;
691;SDS011;328;50.086;8.576;2022-10-22T07:40:11;2.27;;;1.23;;
691;SDS011;328;50.086;8.576;2022-10-22T07:42:44;2.27;;;1.30;;
691;SDS011;328;50.086;8.576;2022-10-22T07:45:12;1.17;;;1.00;;
691;SDS011;328;50.086;8.576;2022-10-22T07:47:40;2.90;;;1.83;;
691;SDS011;328;50.086;8.576;2022-10-22T07:50:09;2.20;;;1.03;;
691;SDS011;328;50.086;8.576;2022-10-22T07:52:36;2.60;;;0.90;;
691;SDS011;328;50.086;8.576;2022-10-22T07:55:05;1.50;;;1.07;;
691;SDS011;328;50.086;8.576;2022-10-22T07:57:33;1.00;;;0.83;;
691;SDS011;328;50.086;8.576;2022-10-22T08:00:03;5.27;;;1.20;;
691;SDS011;328;50.086;8.576;2022-10-22T08:02:31;1.70;;;0.90;;
691;SDS011;328;50.086;8.576;2022-10-22T08:04:59;2.40;;;0.90;;
691;SDS011;328;50.086;8.576;2022-10-22T08:07:26;2.40;;;1.17;;
691;SDS011;328;50.086;8.576;2022-10-22T08:09:54;2.03;;;1.00;;
691;SDS011;328;50.086;8.576;2022-10-22T08:12:22;3.73;;;0.73;;
691;SDS011;328;50.086;8.576;2022-10-22T08:14:49;1.10;;;0.93;;
691;SDS011;328;50.086;8.576;2022-10-22T08:17:18;1.40;;;0.80;;
691;SDS011;328;50.086;8.576;2022-10-22T08:19:46;1.77;;;0.80;;
691;SDS011;328;50.086;8.576;2022-10-22T08:22:13;1.27;;;0.80;;
691;SDS011;328;50.086;8.576;2022-10-22T08:24:41;1.53;;;0.80;;
691;SDS011;328;50.086;8.576;2022-10-22T08:27:08;1.40;;;0.93;;
691;SDS011;328;50.086;8.576;2022-10-22T08:29:36;1.43;;;0.70;;
691;SDS011;328;50.086;8.576;2022-10-22T08:32:03;2.13;;;0.80;;
691;SDS011;328;50.086;8.576;2022-10-22T08:34:32;0.70;;;0.50;;
691;SDS011;328;50.086;8.576;2022-10-22T08:37:00;2.70;;;0.70;;
691;SDS011;328;50.086;8.576;2022-10-22T08:39:28;3.80;;;1.37;;
691;SDS011;328;50.086;8.576;2022-10-22T08:41:58;1.00;;;0.57;;
691;SDS011;328;50.086;8.576;2022-10-22T08:44:38;0.80;;;0.60;;
691;SDS011;328;50.086;8.576;2022-10-22T08:47:15;2.63;;;1.37;;
691;SDS011;328;50.086;8.576;2022-10-22T08:49:50;1.20;;;0.90;;
691;SDS011;328;50.086;8.576;2022-10-22T08:52:19;2.63;;;2.17;;
691;SDS011;328;50.086;8.576;2022-10-22T08:54:50;3.33;;;2.30;;
691;SDS011;328;50.086;8.576;2022-10-22T08:57:24;4.73;;;1.00;;
691;SDS011;328;50.086;8.576;2022-10-22T09:00:00;2.50;;;1.27;;
691;SDS011;328;50.086;8.576;2022-10-22T09:02:33;1.30;;;0.83;;
691;SDS011;328;50.086;8.576;2022-10-22T09:05:10;1.43;;;1.03;;
691;SDS011;328;50.086;8.576;2022-10-22T09:07:47;3.63;;;1.00;;
691;SDS011;328;50.086;8.576;2022-10-22T09:10:15;1.30;;;0.80;;
691;SDS011;328;50.086;8.576;2022-10-22T09:12:44;1.50;;;1.10;;
691;SDS011;328;50.086;8.576;2022-10-22T09:15:12;1.00;;;0.70;;
691;SDS011;328;50.086;8.576;2022-10-22T09:17:44;1.00;;;0.60;;
691;SDS011;328;50.086;8.576;2022-10-22T09:20:19;1.63;;;0.80;;
691;SDS011;328;50.086;8.576;2022-10-22T09:22:56;1.00;;;0.60;;
691;SDS011;328;50.086;8.576;2022-10-22T09:25:28;1.10;;;0.80;;
691;SDS011;328;50.086;8.576;2022-10-22T09:27:57;1.57;;;1.00;;
691;SDS011;328;50.086;8.576;2022-10-22T09:30:26;1.83;;;1.20;;
691;SDS011;328;50.086;8.576;2022-10-22T09:32:58;1.63;;;1.23;;
691;SDS011;328;50.086;8.576;2022-10-22T09:35:28;2.53;;;0.57;;
691;SDS011;328;50.086;8.576;2022-10-22T09:38:05;0.70;;;0.50;;
691;SDS011;328;50.086;8.576;2022-10-22T09:40:40;1.33;;;0.50;;
691;SDS011;328;50.086;8.576;2022-10-22T09:43:10;1.67;;;0.60;;
691;SDS011;328;50.086;8.576;2022-10-22T09:45:39;0.87;;;0.50;;
691;SDS011;328;50.086;8.576;2022-10-22T09:48:13;1.60;;;1.20;;
691;SDS011;328;50.086;8.576;2022-10-22T09:50:48;0.90;;;0.80;;
691;SDS011;328;50.086;8.576;2022-10-22T09:53:21;0.80;;;0.60;;
691;SDS011;328;50.086;8.576;2022-10-22T09:55:54;3.37;;;0.90;;
691;SDS011;328;50.086;8.576;2022-10-22T09:58:23;1.73;;;0.60;;
691;SDS011;328;50.086;8.576;2022-10-22T10:00:52;0.90;;;0.60;;
691;SDS011;328;50.086;8.576;2022-10-22T10:03:23;1.10;;;0.60;;
691;SDS011;328;50.086;8.576;2022-10-22T10:05:53;1.73;;;0.60;;
691;SDS011;328;50.086;8.576;2022-10-22T10:08:28;5.13;;;0.97;;
691;SDS011;328;50.086;8.576;2022-10-22T10:10:57;1.67;;;1.10;;
691;SDS011;328;50.086;8.576;2022-10-22T10:13:39;3.47;;;0.70;;
691;SDS011;328;50.086;8.576;2022-10-22T10:16:12;4.83;;;1.83;;
691;SDS011;328;50.086;8.576;2022-10-22T10:18:55;0.80;;;0.50;;
691;SDS011;328;50.086;8.576;2022-10-22T10:21:32;3.27;;;0.63;;
691;SDS011;328;50.086;8.576;2022-10-22T10:24:07;2.53;;;0.53;;
691;SDS011;328;50.086;8.576;2022-10-22T10:26:41;2.20;;;0.70;;
691;SDS011;328;50.086;8.576;2022-10-22T10:29:16;0.80;;;0.50;;
691;SDS011;328;50.086;8.576;2022-10-22T10:31:56;0.73;;;0.50;;
691;SDS011;328;50.086;8.576;2022-10-22T10:34:34;1.67;;;0.70;;
691;SDS011;328;50.086;8.576;2022-10-22T10:37:11;1.23;;;0.70;;
691;SDS011;328;50.086;8.576;2022-10-22T10:39:48;2.03;;;0.60;;
691;SDS011;328;50.086;8.576;2022-10-22T10:42:32;1.13;;;0.80;;
691;SDS011;328;50.086;8.576;2022-10-22T10:45:07;1.10;;;0.57;;
691;SDS011;328;50.086;8.576;2022-10-22T10:50:58;1.40;;;0.77;;
691;SDS011;328;50.086;8.576;2022-10-22T10:53:35;4.83;;;0.67;;
691;SDS011;328;50.086;8.576;2022-10-22T10:56:13;1.70;;;0.50;;
691;SDS011;328;50.086;8.576;2022-10-22T10:58:53;3.10;;;0.60;;
691;SDS011;328;50.086;8.576;2022-10-22T11:01:28;1.67;;;0.60;;
691;SDS011;328;50.086;8.576;2022-10-22T11:04:08;4.63;;;1.90;;
691;SDS011;328;50.086;8.576;2022-10-22T11:06:46;1.93;;;0.93;;
691;SDS011;328;50.086;8.576;2022-10-22T11:09:20;3.20;;;1.77;;
691;SDS011;328;50.086;8.576;2022-10-22T11:11:50;2.10;;;0.80;;
691;SDS011;328;50.086;8.576;2022-10-22T11:14:20;4.30;;;1.67;;
691;SDS011;328;50.086;8.576;2022-10-22T11:16:55;4.80;;;3.60;;
691;SDS011;328;50.086;8.576;2022-10-22T11:19:28;5.83;;;4.07;;
691;SDS011;328;50.086;8.576;2022-10-22T11:22:18;3.70;;;0.90;;
691;SDS011;328;50.086;8.576;2022-10-22T11:24:54;2.17;;;1.57;;
691;SDS011;328;50.086;8.576;2022-10-22T11:27:24;2.00;;;0.60;;
691;SDS011;328;50.086;8.576;2022-10-22T11:29:56;4.33;;;1.50;;
691;SDS011;328;50.086;8.576;2022-10-22T11:32:27;4.93;;;2.63;;
691;SDS011;328;50.086;8.576;2022-10-22T11:34:55;2.10;;;1.03;;
691;SDS011;328;50.086;8.576;2022-10-22T11:37:25;1.63;;;0.80;;
691;SDS011;328;50.086;8.576;2022-10-22T11:40:01;1.10;;;0.70;;
691;SDS011;328;50.086;8.576;2022-10-22T11:42:32;1.23;;;0.90;;
691;SDS011;328;50.086;8.576;2022-10-22T11:45:02;4.23;;;0.70;;
691;SDS011;328;50.086;8.576;2022-10-22T11:47:32;2.23;;;0.80;;
691;SDS011;328;50.086;8.576;2022-10-22T11:50:02;0.90;;;0.60;;
691;SDS011;328;50.086;8.576;2022-10-22T11:52:48;2.60;;;1.37;;
691;SDS011;328;50.086;8.576;2022-10-22T11:55:29;4.20;;;1.17;;
691;SDS011;328;50.086;8.576;2022-10-22T11:57:59;6.10;;;1.00;;
691;SDS011;328;50.086;8.576;2022-10-22T12:00:33;1.87;;;0.50;;
691;SDS011;328;50.086;8.576;2022-10-22T12:03:15;2.00;;;0.60;;
691;SDS011;328;50.086;8.576;2022-10-22T12:05:43;3.60;;;0.80;;
691;SDS011;328;50.086;8.576;2022-10-22T12:08:15;1.17;;;0.60;;
691;SDS011;328;50.086;8.576;2022-10-22T12:10:50;4.83;;;1.63;;
691;SDS011;328;50.086;8.576;2022-10-22T12:13:25;1.83;;;0.80;;
691;SDS011;328;50.086;8.576;2022-10-22T12:15:55;3.17;;;1.73;;
691;SDS011;328;50.086;8.576;2022-10-22T12:18:25;4.53;;;0.80;;
691;SDS011;328;50.086;8.576;2022-10-22T12:20:54;2.40;;;0.87;;
691;SDS011;328;50.086;8.576;2022-10-22T12:23:23;5.03;;;0.73;;
691;SDS011;328;50.086;8.576;2022-10-22T12:25:59;2.60;;;1.07;;
691;SDS011;328;50.086;8.576;2022-10-22T12:28:27;2.90;;;0.77;;
691;SDS011;328;50.086;8.576;2022-10-22T12:30:57;1.60;;;0.60;;
691;SDS011;328;50.086;8.576;2022-10-22T12:33:25;2.67;;;0.97;;
691;SDS011;328;50.086;8.576;2022-10-22T12:35:53;2.23;;;0.60;;
691;SDS011;328;50.086;8.576;2022-10-22T12:38:22;5.27;;;0.80;;
691;SDS011;328;50.086;8.576;2022-10-22T12:40:53;1.70;;;0.80;;
691;SDS011;328;50.086;8.576;2022-10-22T12:43:24;3.53;;;0.73;;
691;SDS011;328;50.086;8.576;2022-10-22T12:45:53;4.33;;;0.70;;
691;SDS011;328;50.086;8.576;2022-10-22T12:48:21;3.70;;;0.60;;
691;SDS011;328;50.086;8.576;2022-10-22T12:50:50;3.03;;;0.90;;
691;SDS011;328;50.086;8.576;2022-10-22T12:53:21;2.33;;;1.20;;
691;SDS011;328;50.086;8.576;2022-10-22T12:55:52;2.43;;;0.70;;
691;SDS011;328;50.086;8.576;2022-10-22T12:58:21;1.70;;;0.53;;
691;SDS011;328;50.086;8.576;2022-10-22T13:00:56;4.03;;;0.80;;
691;SDS011;328;50.086;8.576;2022-10-22T13:03:28;4.70;;;0.60;;
691;SDS011;328;50.086;8.576;2022-10-22T13:06:10;3.90;;;0.70;;
691;SDS011;328;50.086;8.576;2022-10-22T13:08:38;1.10;;;0.40;;
691;SDS011;328;50.086;8.576;2022-10-22T13:11:07;5.00;;;0.90;;
691;SDS011;328;50.086;8.576;2022-10-22T13:13:42;2.27;;;0.67;;
691;SDS011;328;50.086;8.576;2022-10-22T13:16:14;1.67;;;0.60;;
691;SDS011;328;50.086;8.576;2022-10-22T13:18:44;1.50;;;0.77;;
691;SDS011;328;50.086;8.576;2022-10-22T13:21:20;2.40;;;0.90;;
691;SDS011;328;50.086;8.576;2022-10-22T13:23:51;4.20;;;0.80;;
691;SDS011;328;50.086;8.576;2022-10-22T13:26:22;1.50;;;0.80;;
691;SDS011;328;50.086;8.576;2022-10-22T13:28:53;1.60;;;0.97;;
691;SDS011;328;50.086;8.576;2022-10-22T13:31:23;2.20;;;0.70;;
691;SDS011;328;50.086;8.576;2022-10-22T13:33:52;2.83;;;1.00;;
691;SDS011;328;50.086;8.576;2022-10-22T13:36:22;3.00;;;1.20;;
691;SDS011;328;50.086;8.576;2022-10-22T13:38:50;3.30;;;0.87;;
691;SDS011;328;50.086;8.576;2022-10-22T13:41:19;1.27;;;0.67;;
691;SDS011;328;50.086;8.576;2022-10-22T13:43:48;3.90;;;1.30;;
691;SDS011;328;50.086;8.576;2022-10-22T13:46:17;3.73;;;0.90;;
691;SDS011;328;50.086;8.576;2022-10-22T13:48:45;2.60;;;0.90;;
691;SDS011;328;50.086;8.576;2022-10-22T13:51:14;5.40;;;0.80;;
691;SDS011;328;50.086;8.576;2022-10-22T13:53:43;2.20;;;0.73;;
691;SDS011;328;50.086;8.576;2022-10-22T13:56:12;4.47;;;1.50;;
691;SDS011;328;50.086;8.576;2022-10-22T13:58:41;1.27;;;0.70;;
691;SDS011;328;50.086;8.576;2022-10-22T14:01:13;1.53;;;0.70;;
691;SDS011;328;50.086;8.576;2022-10-22T14:03:46;3.00;;;0.70;;
691;SDS011;328;50.086;8.576;2022-10-22T14:06:16;3.03;;;1.03;;
691;SDS011;328;50.086;8.576;2022-10-22T14:08:45;1.93;;;1.03;;
691;SDS011;328;50.086;8.576;2022-10-22T14:11:15;1.77;;;0.80;;
691;SDS011;328;50.086;8.576;2022-10-22T14:13:43;3.07;;;0.70;;
691;SDS011;328;50.086;8.576;2022-10-22T14:16:14;3.50;;;1.07;;
691;SDS011;328;50.086;8.576;2022-10-22T14:18:44;4.73;;;1.73;;
691;SDS011;328;50.086;8.576;2022-10-22T14:21:12;2.80;;;0.63;;
691;SDS011;328;50.086;8.576;2022-10-22T14:23:41;3.13;;;1.43;;
691;SDS011;328;50.086;8.576;2022-10-22T14:26:11;11.73;;;1.33;;
691;SDS011;328;50.086;8.576;2022-10-22T14:28:46;3.83;;;0.97;;
691;SDS011;328;50.086;8.576;2022-10-22T14:31:33;2.47;;;1.40;;
691;SDS011;328;50.086;8.576;2022-10-22T14:34:02;2.57;;;0.90;;
691;SDS011;328;50.086;8.576;2022-10-22T14:36:30;6.30;;;2.00;;
691;SDS011;328;50.086;8.576;2022-10-22T14:38:57;4.83;;;2.40;;
691;SDS011;328;50.086;8.576;2022-10-22T14:41:25;8.60;;;2.70;;
691;SDS011;328;50.086;8.576;2022-10-22T14:43:55;2.30;;;1.30;;
691;SDS011;328;50.086;8.576;2022-10-22T14:46:24;3.10;;;1.10;;
691;SDS011;328;50.086;8.576;2022-10-22T14:48:52;1.00;;;0.70;;
691;SDS011;328;50.086;8.576;2022-10-22T14:51:20;1.23;;;0.70;;
691;SDS011;328;50.086;8.576;2022-10-22T14:53:48;2.13;;;0.73;;
691;SDS011;328;50.086;8.576;2022-10-22T14:56:17;3.37;;;1.00;;
691;SDS011;328;50.086;8.576;2022-10-22T14:58:46;2.40;;;2.20;;
691;SDS011;328;50.086;8.576;2022-10-22T15:01:14;2.50;;;0.70;;
691;SDS011;328;50.086;8.576;2022-10-22T15:03:41;5.13;;;1.10;;
691;SDS011;328;50.086;8.576;2022-10-22T15:06:09;2.13;;;1.60;;
691;SDS011;328;50.086;8.576;2022-10-22T15:08:38;4.10;;;2.20;;
691;SDS011;328;50.086;8.576;2022-10-22T15:11:06;5.30;;;3.50;;
691;SDS011;328;50.086;8.576;2022-10-22T15:13:35;3.90;;;1.90;;
691;SDS011;328;50.086;8.576;2022-10-22T15:16:04;3.10;;;1.10;;
691;SDS011;328;50.086;8.576;2022-10-22T15:18:32;4.30;;;1.17;;
691;SDS011;328;50.086;8.576;2022-10-22T15:21:00;1.90;;;1.00;;
691;SDS011;328;50.086;8.576;2022-10-22T15:23:30;5.20;;;1.30;;
691;SDS011;328;50.086;8.576;2022-10-22T15:25:59;3.87;;;0.90;;
691;SDS011;328;50.086;8.576;2022-10-22T15:28:27;2.30;;;0.73;;
691;SDS011;328;50.086;8.576;2022-10-22T15:30:56;2.80;;;1.10;;
691;SDS011;328;50.086;8.576;2022-10-22T15:33:25;2.70;;;0.83;;
691;SDS011;328;50.086;8.576;2022-10-22T15:35:54;7.13;;;1.23;;
691;SDS011;328;50.086;8.576;2022-10-22T15:38:25;3.10;;;1.20;;
691;SDS011;328;50.086;8.576;2022-10-22T15:41:00;3.77;;;1.23;;
691;SDS011;328;50.086;8.576;2022-10-22T15:43:31;2.87;;;1.33;;
691;SDS011;328;50.086;8.576;2022-10-22T15:46:07;3.13;;;1.43;;
691;SDS011;328;50.086;8.576;2022-10-22T15:48:36;2.80;;;1.87;;
691;SDS011;328;50.086;8.576;2022-10-22T15:51:07;4.27;;;2.20;;
691;SDS011;328;50.086;8.576;2022-10-22T15:53:36;3.87;;;2.23;;
691;SDS011;328;50.086;8.576;2022-10-22T15:56:05;4.60;;;2.23;;
691;SDS011;328;50.086;8.576;2022-10-22T15:58:33;2.20;;;1.40;;
691;SDS011;328;50.086;8.576;2022-10-22T16:01:04;5.37;;;1.70;;
691;SDS011;328;50.086;8.576;2022-10-22T16:03:32;2.23;;;1.00;;
691;SDS011;328;50.086;8.576;2022-10-22T16:06:00;6.03;;;1.93;;
691;SDS011;328;50.086;8.576;2022-10-22T16:08:28;4.30;;;1.20;;